createdAt,value
2018-03-08T00:04:29.931Z,99586.34
2018-03-08T00:09:32.400Z,99586.80
2018-03-08T00:14:34.873Z,99576.01
2018-03-08T00:19:37.348Z,99583.19
2018-03-08T00:24:39.824Z,99587.22
2018-03-08T00:29:42.334Z,99584.73
2018-03-08T00:34:44.870Z,99584.50
2018-03-08T00:39:47.360Z,99589.75
2018-03-08T00:44:49.911Z,99591.97
2018-03-08T00:49:52.360Z,99595.30
2018-03-08T00:54:54.826Z,99588.91
2018-03-08T00:59:57.283Z,99592.86
2018-03-08T01:04:59.752Z,99591.82
2018-03-08T01:10:02.225Z,99585.36
2018-03-08T01:15:04.705Z,99579.33
2018-03-08T01:20:07.166Z,99569.56
2018-03-08T01:25:09.648Z,99573.32
2018-03-08T01:30:12.146Z,99572.23
2018-03-08T01:35:14.636Z,99566.73
2018-03-08T01:40:17.151Z,99585.95
2018-03-08T01:45:19.636Z,99584.02
2018-03-08T01:50:22.117Z,99579.58
2018-03-08T01:55:24.585Z,99577.91
2018-03-08T02:00:27.038Z,99578.94
2018-03-08T02:05:29.513Z,99576.50
2018-03-08T02:10:31.968Z,99580.39
2018-03-08T02:15:34.445Z,99570.97
2018-03-08T02:20:36.900Z,99575.95
2018-03-08T02:25:39.344Z,99575.83
2018-03-08T02:30:41.852Z,99584.11
2018-03-08T02:35:44.327Z,99583.87
2018-03-08T02:40:46.777Z,99596.37
2018-03-08T02:45:49.273Z,99601.61
2018-03-08T02:50:51.760Z,99607.08
2018-03-08T02:55:54.250Z,99606.55
2018-03-08T03:00:56.705Z,99617.38
2018-03-08T03:05:59.169Z,99609.44
2018-03-08T03:11:01.639Z,99616.38
2018-03-08T03:16:04.101Z,99620.18
2018-03-08T03:21:06.571Z,99617.20
2018-03-08T03:26:09.044Z,99610.00
2018-03-08T03:31:11.520Z,99613.17
2018-03-08T03:36:13.994Z,99608.44
2018-03-08T03:41:16.492Z,99619.20
2018-03-08T03:46:18.967Z,99617.59
2018-03-08T03:51:21.409Z,99626.06
2018-03-08T03:56:23.909Z,99622.72
2018-03-08T04:01:26.476Z,99627.15
2018-03-08T04:06:29.138Z,99636.30
2018-03-08T04:11:31.606Z,99638.77
2018-03-08T04:16:34.068Z,99632.02
2018-03-08T04:21:36.533Z,99637.28
2018-03-08T04:26:39.006Z,99641.72
2018-03-08T04:31:41.474Z,99644.08
2018-03-08T04:36:43.965Z,99650.06
2018-03-08T04:41:46.449Z,99643.48
2018-03-08T04:46:48.946Z,99647.34
2018-03-08T04:51:51.399Z,99641.29
2018-03-08T04:56:53.861Z,99648.77
2018-03-08T05:01:56.318Z,99650.92
2018-03-08T05:06:58.841Z,99663.22
2018-03-08T05:12:01.303Z,99672.75
2018-03-08T05:17:03.768Z,99678.70
2018-03-08T05:22:06.225Z,99664.47
2018-03-08T05:27:08.721Z,99669.88
2018-03-08T05:32:11.304Z,99677.30
2018-03-08T05:37:13.827Z,99676.91
2018-03-08T05:42:16.328Z,99681.11
2018-03-08T05:47:18.807Z,99689.16
2018-03-08T05:52:21.290Z,99690.48
2018-03-08T05:57:23.794Z,99693.06
2018-03-08T06:02:26.244Z,99699.38
2018-03-08T06:07:28.688Z,99699.48
2018-03-08T06:12:31.151Z,99715.31
2018-03-08T06:17:34.747Z,99711.69
2018-03-08T06:22:37.330Z,99725.89
2018-03-08T06:27:39.802Z,99735.06
2018-03-08T06:32:42.303Z,99739.52
2018-03-08T06:37:44.840Z,99750.09
2018-03-08T06:42:47.375Z,99758.55
2018-03-08T06:47:49.863Z,99764.49
2018-03-08T06:52:52.335Z,99762.41
2018-03-08T06:57:55.609Z,99770.77
2018-03-08T07:02:58.069Z,99776.03
2018-03-08T07:08:00.665Z,99787.39
2018-03-08T07:13:03.246Z,99792.55
2018-03-08T07:18:05.721Z,99794.95
2018-03-08T07:23:08.214Z,99808.72
2018-03-08T07:28:10.671Z,99808.13
2018-03-08T07:33:13.170Z,99816.66
2018-03-08T07:38:15.636Z,99822.14
2018-03-08T07:43:18.154Z,99822.52
2018-03-08T07:48:20.624Z,99832.07
2018-03-08T07:53:23.127Z,99832.59
2018-03-08T07:58:25.612Z,99837.50
2018-03-08T08:03:28.071Z,99841.96
2018-03-08T08:14:08.454Z,99858.77
2018-03-08T08:19:10.915Z,99863.40
2018-03-08T08:24:13.794Z,99862.14
2018-03-08T08:29:16.254Z,99869.11
2018-03-08T08:34:18.768Z,99881.91
2018-03-08T08:39:21.255Z,99882.95
2018-03-08T08:44:23.839Z,99889.75
2018-03-08T08:49:26.324Z,99900.66
2018-03-08T08:54:28.788Z,99916.98
2018-03-08T08:59:31.279Z,99927.05
2018-03-08T09:04:34.860Z,99928.59
2018-03-08T09:09:37.328Z,99936.11
2018-03-08T09:14:39.794Z,99939.51
2018-03-08T09:19:42.272Z,99953.24
2018-03-08T09:24:44.741Z,99956.03
2018-03-08T09:29:47.230Z,99965.97
2018-03-08T09:34:49.728Z,99962.88
2018-03-08T09:39:52.195Z,99964.34
2018-03-08T09:44:54.649Z,99972.30
2018-03-08T09:49:57.239Z,99973.61
2018-03-08T09:54:59.706Z,99974.43
2018-03-08T10:00:02.184Z,99986.62
2018-03-08T10:05:04.639Z,99986.34
2018-03-08T10:10:07.152Z,99989.98
2018-03-08T10:15:09.615Z,99991.48
2018-03-08T10:20:12.068Z,99991.86
2018-03-08T10:25:14.550Z,99999.56
2018-03-08T10:30:17.031Z,100004.05
2018-03-08T10:35:19.557Z,100005.01
2018-03-08T10:40:22.079Z,100001.77
2018-03-08T10:45:24.581Z,100003.20
2018-03-08T10:50:28.227Z,100002.56
2018-03-08T10:55:30.663Z,100009.02
2018-03-08T11:00:38.899Z,100008.73
2018-03-08T11:05:47.414Z,100017.55
2018-03-08T11:10:49.840Z,100016.50
2018-03-08T11:15:52.433Z,100018.34
2018-03-08T11:20:54.910Z,100004.50
2018-03-08T11:25:57.374Z,100005.14
2018-03-08T11:30:59.830Z,100008.36
2018-03-08T11:36:02.305Z,100011.25
2018-03-08T11:41:04.768Z,100003.87
2018-03-08T11:46:07.244Z,100001.77
2018-03-08T11:51:09.730Z,100000.05
2018-03-08T11:56:12.199Z,99995.23
2018-03-08T12:01:14.666Z,99992.34
2018-03-08T12:06:17.223Z,99997.52
2018-03-08T12:11:19.690Z,100001.69
2018-03-08T12:16:22.178Z,100005.55
2018-03-08T12:21:24.749Z,100000.07
2018-03-08T12:26:27.273Z,100004.53
2018-03-08T12:31:29.770Z,100006.03
2018-03-08T12:36:32.244Z,100000.19
2018-03-08T12:41:34.706Z,99998.95
2018-03-08T12:46:37.193Z,100001.34
2018-03-08T12:51:39.730Z,99993.94
2018-03-08T12:56:42.208Z,99995.14
2018-03-08T13:01:44.688Z,99995.66
2018-03-08T13:06:47.142Z,99995.88
2018-03-08T13:11:49.700Z,99985.89
2018-03-08T13:16:52.193Z,99990.31
2018-03-08T13:21:54.694Z,99995.37
2018-03-08T13:26:57.178Z,99985.72
2018-03-08T13:31:59.683Z,99988.20
2018-03-08T13:37:02.182Z,99974.82
2018-03-08T13:42:04.682Z,99973.33
2018-03-08T13:47:07.169Z,99976.41
2018-03-08T13:52:09.681Z,99981.86
2018-03-08T13:57:12.978Z,99970.45
2018-03-08T14:02:15.487Z,99971.09
2018-03-08T14:07:17.932Z,99979.16
2018-03-08T14:12:20.461Z,99974.69
2018-03-08T14:17:22.933Z,99973.62
2018-03-08T14:22:25.387Z,99971.02
2018-03-08T14:27:27.854Z,99967.31
2018-03-08T14:32:30.326Z,99967.03
2018-03-08T14:37:32.794Z,99960.56
2018-03-08T14:42:35.255Z,99950.09
2018-03-08T14:47:37.875Z,99947.81
2018-03-08T14:52:40.357Z,99943.31
2018-03-08T14:57:42.826Z,99953.14
2018-03-08T15:02:45.324Z,99948.19
2018-03-08T15:07:47.769Z,99943.27
2018-03-08T15:12:50.260Z,99936.88
2018-03-08T15:17:52.729Z,99926.21
2018-03-08T15:22:55.210Z,99930.45
2018-03-08T15:27:57.717Z,99924.04
2018-03-08T15:33:00.190Z,99926.05
2018-03-08T15:38:02.642Z,99920.76
2018-03-08T15:43:05.113Z,99922.72
2018-03-08T15:48:07.567Z,99928.73
2018-03-08T15:53:10.044Z,99925.69
2018-03-08T15:58:12.563Z,99930.08
2018-03-08T16:03:15.082Z,99923.50
2018-03-08T16:14:04.933Z,99923.63
2018-03-08T16:19:07.396Z,99922.38
2018-03-08T16:24:09.871Z,99913.77
2018-03-08T16:29:12.420Z,99903.70
2018-03-08T16:34:14.862Z,99908.76
2018-03-08T16:39:17.345Z,99913.88
2018-03-08T16:44:19.828Z,99917.07
2018-03-08T16:49:22.402Z,99910.98
2018-03-08T16:54:24.924Z,99905.41
2018-03-08T16:59:27.401Z,99902.28
2018-03-08T17:04:29.921Z,99910.28
2018-03-08T17:09:33.220Z,99916.06
2018-03-08T17:14:36.067Z,99918.96
2018-03-08T17:19:38.519Z,99915.88
2018-03-08T17:24:41.465Z,99917.00
2018-03-08T17:29:44.229Z,99919.18
2018-03-08T17:34:46.727Z,99918.95
2018-03-08T17:39:50.298Z,99913.02
2018-03-08T17:44:54.743Z,99917.19
2018-03-08T17:49:57.258Z,99917.63
2018-03-08T17:54:59.763Z,99917.04
2018-03-08T18:00:02.252Z,99913.44
2018-03-08T18:05:04.711Z,99907.38
2018-03-08T18:10:07.195Z,99908.19
2018-03-08T18:15:09.680Z,99907.36
2018-03-08T18:20:12.192Z,99895.98
2018-03-08T18:25:14.658Z,99905.97
2018-03-08T18:30:17.141Z,99892.02
2018-03-08T18:35:19.605Z,99897.73
2018-03-08T18:40:22.110Z,99884.83
2018-03-08T18:45:24.592Z,99874.19
2018-03-08T18:50:27.090Z,99863.33
2018-03-08T18:55:29.541Z,99860.05
2018-03-08T19:00:32.045Z,99859.31
2018-03-08T19:05:34.494Z,99840.47
2018-03-08T19:10:36.988Z,99855.59
2018-03-08T19:15:39.508Z,99845.59
2018-03-08T19:20:41.971Z,99844.38
2018-03-08T19:25:44.444Z,99850.43
2018-03-08T19:30:46.946Z,99845.66
2018-03-08T19:35:49.442Z,99849.45
2018-03-08T19:40:51.910Z,99847.80
2018-03-08T19:45:54.568Z,99840.91
2018-03-08T19:50:57.028Z,99837.38
2018-03-08T19:55:59.536Z,99838.19
2018-03-08T20:01:02.258Z,99834.89
2018-03-08T20:06:04.724Z,99837.59
2018-03-08T20:11:07.202Z,99833.96
2018-03-08T20:16:09.742Z,99834.77
2018-03-08T20:21:12.233Z,99834.95
2018-03-08T20:26:14.696Z,99826.91
2018-03-08T20:31:17.165Z,99823.30
2018-03-08T20:36:19.653Z,99823.77
2018-03-08T20:41:22.161Z,99817.19
2018-03-08T20:46:24.779Z,99817.44
2018-03-08T20:51:27.238Z,99824.19
2018-03-08T20:56:29.710Z,99832.82
2018-03-08T21:01:32.146Z,99839.38
2018-03-08T21:06:34.620Z,99825.09
2018-03-08T21:11:37.085Z,99827.58
2018-03-08T21:16:39.533Z,99836.22
2018-03-08T21:21:42.012Z,99844.02
2018-03-08T21:26:44.469Z,99840.66
2018-03-08T21:31:46.955Z,99831.78
2018-03-08T21:36:49.415Z,99820.04
2018-03-08T21:41:51.918Z,99810.72
2018-03-08T21:46:54.414Z,99806.58
2018-03-08T21:51:56.879Z,99804.00
2018-03-08T21:56:59.384Z,99793.13
2018-03-08T22:02:01.827Z,99761.95
2018-03-08T22:07:04.301Z,99765.95
2018-03-08T22:12:07.675Z,99748.60
2018-03-08T22:17:10.112Z,99753.76
2018-03-08T22:22:12.599Z,99769.17
2018-03-08T22:27:15.037Z,99777.86
2018-03-08T22:32:17.492Z,99781.58
2018-03-08T22:37:19.967Z,99779.49
2018-03-08T22:42:22.459Z,99782.14
2018-03-08T22:47:25.034Z,99816.92
2018-03-08T22:52:27.542Z,99832.87
2018-03-08T22:57:30.032Z,99834.41
2018-03-08T23:02:33.384Z,99838.78
2018-03-08T23:07:35.865Z,99857.02
2018-03-08T23:12:38.321Z,99864.83
2018-03-08T23:17:40.788Z,99863.67
2018-03-08T23:22:43.260Z,99851.37
2018-03-08T23:27:45.755Z,99831.69
2018-03-08T23:32:48.237Z,99825.89
2018-03-08T23:37:50.677Z,99838.54
2018-03-08T23:42:53.137Z,99835.44
2018-03-08T23:47:55.623Z,99843.08
2018-03-08T23:52:58.101Z,99855.05
2018-03-08T23:58:00.559Z,99859.50
